Terminal Aerodrome Forecast
Issued by NWS Jackson, KY

Home | Current Version | Previous Version | Text Only | Print | Product List | Glossary Off
Versions: 1 2 3 4 5 6 7 8 9 10 11 12 13 14 15 16

000
FTUS43 KJKL 200305 AAA
TAFLOZ
TAF AMD
KLOZ 200305Z 2003/2024 15004KT 6SM -SHRA OVC035
     FM200500 19006KT 3SM -SHRA BR OVC015
     FM201000 19006KT P6SM BKN005 OVC015
     FM201600 20006KT P6SM BKN015=

USA.gov is the U.S. government's official web portal to all federal, state and local government web resources and services.